Planalto Alegre, Brazil
Current Conditions -  °F | °C
As of 1:00 PM on Friday 24 Oct 2014 (Local Time) from SBCH Reporting Station
Few Clouds Few Clouds  
Wind Chill: 84°   Ceiling: Unl
Heat Index: 86°   Visibility: 6mi
Dew Point: 64°   Wind: 12mph
Humidity: 51%   Direction: 260°W
Pressure: 30"   Gusts: NA
Location:  27.07°S, 52.87°W
Report Text: SBCH 241500Z 26010KT 9999 FEW040 29/18 Q1016
Loading
Personal Weather Stations






























Interactive Weather Map
Tropical Storm Tracking
New forecast layout! Learn more

10-Day Weather Forecast

Advertisements
Track Severe Weather on mobile